Portada
METAR-TAF:

METAR-TAF

Aeropuertos :

Montpellier, Francia

Aeropuerto de Montpellier-Méditerranée

latitud: 43-35N, longitud: 003-58E, altitud: 5 m

Observación

El informe se hizo hace 20 horas y 21 minutos, a las 15:00 UTC
Viento 12 kt del norte, variando entre norte-noroeste y noreste
Temperatura 14°C
Humedad 44%
Presión 1009 hPa
Visibilidad 10 km o más
sin nubes por debajo de 1500 m y sin presencia de cumulonimbus.

METAR: LFMT 201500Z AUTO 35012KT 330V040 CAVOK 14/02 Q1009 NOSIG

Hora: 12:21 (11:21 UTC)

Pronóstico

El informe se hizo hace 21 horas y 21 minutos, a las 14:00 UTC
Pronóstico válido del 20 a las 15 UTC al 21 a las 15 UTC
Viento 10 kt del norte
Visibilidad 10 km o más
sin nubes por debajo de 1500 m y sin presencia de cumulonimbus.
Temporalmente
del 21 a las 08 UTC al 21 a las 12 UTC
Viento 20 kt del norte-noreste con ráfagas de 30 kt

TAF: LFMT 201400Z 2015/2115 36010KT CAVOK TEMPO 2108/2112 02020G30KT

Observaciones y pronósticos meteorológicos de más de 4000 aeropuertos (mensajes METAR y TAF).

Los puntos amarillos y rojos representan las estaciones disponibles.

Ponga el ratón en el punto deseado para ver el nombre de la estación.

Haga clic para ver las observaciones y los pronósticos meteorológicos.

Para cambiar el mapa : haga clic en los botones verdes con una cruz de color negro para hacer un zoom, en el botón verde con un guión para alejar o en las flechas verdes para mapas adyacentes.


METAR-TAF: